Fearisville, Kentucky
Current Conditions -  °F | °C
As of 4:35 PM on Friday 19 Dec 2014 (Local Time) from KFGX Reporting Station
Overcast Overcast  
Wind Chill: 29°   Ceiling: 2000
Heat Index: 29°   Visibility: 10mi
Dew Point: 22°   Wind: 0mph
Humidity: 73%   Direction: NA
Pressure: 30.29"   Gusts: NA
Location:  38.4929°N, 83.3898°W
Report Text: KFGX 192135Z AUTO 00000KT 10SM OVC020 M01/M06 A3029 RMK AO2 T10151057
Loading
Personal Weather Stations






























Interactive Weather Map New forecast layout! Learn more

10-Day Weather Forecast

Advertisements
Track Severe Weather on mobile